Time;durP1;ratioP1;P1;durP2;ratioP2;P2;SDS_P1;SDS_P2;PMS_P1;PMS_P2;Temp;Humidity;BMP_temperature;BMP_pressure;BME280_temperature;BME280_humidity;BME280_pressure;Samples;Min_cycle;Max_cycle;Signal;HPM_P1;HPM_P2
2021/09/19 00:01:29;;;;;;;7.80;7.30;;;16.40;99.90;;;;;;5054426;28;20213;-66
2021/09/19 00:03:55;;;;;;;6.70;6.30;;;16.40;99.90;;;;;;5054736;28;20631;-66
2021/09/19 00:06:21;;;;;;;6.57;6.20;;;16.30;99.90;;;;;;5053192;28;20554;-66
2021/09/19 00:08:46;;;;;;;6.83;6.43;;;16.30;99.90;;;;;;5035957;28;20192;-66
2021/09/19 00:11:12;;;;;;;6.97;6.50;;;16.30;99.90;;;;;;5017510;28;20188;-66
2021/09/19 00:13:39;;;;;;;6.67;6.27;;;16.30;99.90;;;;;;5016720;28;20182;-67
2021/09/19 00:16:05;;;;;;;7.33;6.73;;;16.10;99.90;;;;;;5049850;28;20443;-67
2021/09/19 00:18:31;;;;;;;7.73;7.20;;;16.00;99.90;;;;;;5053946;28;20895;-66
2021/09/19 00:20:56;;;;;;;7.27;6.87;;;16.00;99.90;;;;;;5036995;28;20421;-66
2021/09/19 00:23:22;;;;;;;6.90;6.50;;;16.00;99.90;;;;;;5053989;28;20177;-72
2021/09/19 00:25:49;;;;;;;6.93;6.43;;;15.90;99.90;;;;;;5054615;28;20201;-66
2021/09/19 00:28:15;;;;;;;6.90;6.40;;;15.90;99.90;;;;;;5037152;28;20506;-66
2021/09/19 00:30:40;;;;;;;7.70;7.00;;;15.80;99.90;;;;;;5053057;28;20498;-66
2021/09/19 00:33:06;;;;;;;7.77;7.30;;;15.80;99.90;;;;;;5054659;28;20462;-66
2021/09/19 00:35:32;;;;;;;7.67;7.17;;;15.70;99.90;;;;;;5047340;28;20511;-67
2021/09/19 00:37:58;;;;;;;7.63;7.13;;;15.70;99.90;;;;;;5016342;28;20185;-66
2021/09/19 00:40:24;;;;;;;6.80;6.40;;;15.70;99.90;;;;;;5033410;28;20181;-73
2021/09/19 00:42:49;;;;;;;7.47;6.87;;;15.60;99.90;;;;;;5016704;28;20448;-66
2021/09/19 00:45:18;;;;;;;7.07;6.67;;;15.50;99.90;;;;;;5034298;28;20299;-66
2021/09/19 00:47:47;;;;;;;7.57;6.77;;;15.60;99.90;;;;;;5015880;28;21040;-67
2021/09/19 00:50:14;;;;;;;6.70;6.30;;;15.60;99.90;;;;;;5034689;28;20424;-66
2021/09/19 00:52:43;;;;;;;6.83;6.43;;;15.70;99.90;;;;;;5033216;28;20439;-67
2021/09/19 00:55:10;;;;;;;7.40;6.90;;;15.70;99.90;;;;;;5043236;28;21077;-66
2021/09/19 00:57:47;;;;;;;7.70;7.10;;;15.60;99.90;;;;;;5053418;28;20411;-66
2021/09/19 01:00:20;;;;;;;7.23;6.73;;;15.60;99.90;;;;;;5053935;28;20410;-66
2021/09/19 01:02:46;;;;;;;6.97;6.50;;;15.70;99.90;;;;;;5053102;28;20407;-66
2021/09/19 01:05:13;;;;;;;7.43;6.90;;;15.70;99.90;;;;;;5035984;28;20419;-66
2021/09/19 01:07:40;;;;;;;6.70;6.20;;;15.70;99.90;;;;;;5053064;28;20473;-66
2021/09/19 01:10:07;;;;;;;6.80;6.40;;;15.70;99.90;;;;;;5046534;28;20477;-66
2021/09/19 01:12:33;;;;;;;7.30;6.83;;;15.60;99.90;;;;;;5031922;28;20434;-67
2021/09/19 01:15:00;;;;;;;6.80;6.40;;;15.60;99.90;;;;;;5016142;28;20510;-66
2021/09/19 01:17:26;;;;;;;6.60;6.20;;;15.70;99.90;;;;;;5034273;28;20442;-72
2021/09/19 01:19:55;;;;;;;7.67;7.17;;;15.70;99.90;;;;;;5033614;28;20493;-66
2021/09/19 01:22:32;;;;;;;6.70;6.00;;;15.70;99.90;;;;;;5033732;28;20825;-67
2021/09/19 01:25:03;;;;;;;6.63;6.23;;;15.70;99.90;;;;;;5033803;28;20413;-67
2021/09/19 01:27:29;;;;;;;6.60;6.10;;;15.80;99.90;;;;;;5032876;28;20451;-67
2021/09/19 01:29:54;;;;;;;6.73;6.17;;;15.80;99.90;;;;;;5037651;28;20521;-66
2021/09/19 01:32:22;;;;;;;7.07;6.60;;;15.80;99.90;;;;;;5053516;28;20177;-66
2021/09/19 01:34:49;;;;;;;7.13;6.67;;;15.80;99.90;;;;;;5052646;28;20210;-66
2021/09/19 01:37:15;;;;;;;7.20;6.70;;;15.70;99.90;;;;;;5052930;28;20434;-66
2021/09/19 01:39:41;;;;;;;6.50;6.20;;;15.70;99.90;;;;;;5052644;28;20394;-66
2021/09/19 01:42:07;;;;;;;7.47;6.97;;;15.70;99.90;;;;;;5035504;28;20848;-66
2021/09/19 01:44:32;;;;;;;7.00;6.30;;;15.60;99.90;;;;;;5052344;28;20290;-66
2021/09/19 01:46:58;;;;;;;7.13;6.63;;;15.70;99.90;;;;;;5053273;28;20657;-66
2021/09/19 01:49:24;;;;;;;7.00;6.50;;;15.60;99.90;;;;;;5050792;28;20188;-67
2021/09/19 01:51:50;;;;;;;7.30;6.70;;;15.50;99.90;;;;;;5032638;28;20181;-66
2021/09/19 01:54:16;;;;;;;7.60;7.10;;;15.30;99.90;;;;;;5032930;28;20225;-66
2021/09/19 01:56:42;;;;;;;7.67;6.97;;;15.10;99.90;;;;;;5032114;28;20180;-66
2021/09/19 01:59:08;;;;;;;7.47;6.97;;;14.90;99.90;;;;;;5033083;28;20423;-66
2021/09/19 02:01:34;;;;;;;7.70;7.10;;;14.70;99.90;;;;;;5031927;28;20440;-67
2021/09/19 02:04:00;;;;;;;7.17;6.63;;;14.50;99.90;;;;;;5032543;28;20191;-66
2021/09/19 02:06:25;;;;;;;7.30;6.70;;;14.40;99.90;;;;;;5015192;28;20206;-73
2021/09/19 02:08:52;;;;;;;7.13;6.63;;;14.40;99.90;;;;;;5032378;28;20202;-66
2021/09/19 02:11:18;;;;;;;7.00;6.50;;;14.40;99.90;;;;;;5032159;28;20177;-66
2021/09/19 02:13:45;;;;;;;7.60;7.10;;;14.40;99.90;;;;;;5051593;28;20914;-67
2021/09/19 02:16:13;;;;;;;7.70;7.20;;;14.40;99.90;;;;;;5052682;28;20434;-66
2021/09/19 02:18:38;;;;;;;8.07;7.33;;;14.50;99.90;;;;;;5052073;28;20614;-67
2021/09/19 02:21:07;;;;;;;7.83;7.20;;;14.70;99.90;;;;;;5052548;28;20781;-66
2021/09/19 02:23:33;;;;;;;7.13;6.63;;;14.80;99.90;;;;;;5051694;28;20567;-67
2021/09/19 02:26:00;;;;;;;7.37;6.93;;;14.90;99.90;;;;;;5052685;28;20466;-67
2021/09/19 02:28:25;;;;;;;7.57;7.07;;;15.00;99.90;;;;;;5052478;28;20617;-67
2021/09/19 02:30:52;;;;;;;6.50;6.10;;;15.10;99.90;;;;;;5038203;28;20423;-67
2021/09/19 02:33:18;;;;;;;7.10;6.60;;;15.10;99.90;;;;;;5032674;28;20628;-66
2021/09/19 02:35:44;;;;;;;6.37;5.97;;;15.20;99.90;;;;;;5031578;28;20503;-67
2021/09/19 02:38:10;;;;;;;7.20;6.70;;;15.20;99.90;;;;;;5032562;28;20519;-66
2021/09/19 02:40:36;;;;;;;7.23;6.73;;;15.20;99.90;;;;;;5031422;28;20469;-66
2021/09/19 02:43:02;;;;;;;7.33;6.83;;;15.20;99.90;;;;;;5032253;28;20406;-66
2021/09/19 02:45:27;;;;;;;7.10;6.60;;;15.10;99.90;;;;;;5031898;28;20221;-70
2021/09/19 02:47:53;;;;;;;7.43;6.93;;;15.10;99.90;;;;;;5031555;28;20531;-66
2021/09/19 02:50:23;;;;;;;7.10;6.60;;;15.10;99.90;;;;;;5019337;28;20673;-66
2021/09/19 02:52:50;;;;;;;7.90;7.40;;;15.00;99.90;;;;;;5051069;28;20305;-67
2021/09/19 02:55:17;;;;;;;7.70;7.00;;;14.80;99.90;;;;;;5052045;28;20413;-66
2021/09/19 02:57:43;;;;;;;7.30;6.80;;;14.60;99.90;;;;;;5051336;28;20413;-66
2021/09/19 03:00:16;;;;;;;7.73;7.13;;;14.50;99.90;;;;;;5051927;28;20410;-66
2021/09/19 03:02:43;;;;;;;7.13;6.70;;;14.50;99.90;;;;;;5051587;28;20166;-67
2021/09/19 03:05:09;;;;;;;7.30;6.87;;;14.40;99.90;;;;;;5051068;28;20508;-66
2021/09/19 03:07:36;;;;;;;7.70;7.10;;;14.40;99.90;;;;;;5030903;28;20555;-66
2021/09/19 03:10:03;;;;;;;8.00;7.50;;;14.40;99.90;;;;;;5032081;28;20404;-66
2021/09/19 03:12:28;;;;;;;7.03;6.53;;;14.40;99.90;;;;;;5014501;28;20475;-66
2021/09/19 03:14:54;;;;;;;6.50;6.00;;;14.40;99.90;;;;;;5031515;28;20417;-66
2021/09/19 03:17:20;;;;;;;7.40;6.90;;;14.40;99.90;;;;;;5031974;28;20198;-66
2021/09/19 03:19:45;;;;;;;7.57;6.97;;;14.40;99.90;;;;;;5030606;28;20603;-66
2021/09/19 03:22:11;;;;;;;7.53;7.03;;;14.40;99.90;;;;;;5031730;28;20221;-66
2021/09/19 03:24:38;;;;;;;7.50;7.00;;;14.40;99.90;;;;;;5030830;28;20170;-67
2021/09/19 03:27:04;;;;;;;8.20;7.60;;;14.30;99.90;;;;;;5031636;28;20216;-66
2021/09/19 03:29:30;;;;;;;8.10;7.30;;;14.40;99.90;;;;;;5031468;28;20514;-66
2021/09/19 03:31:55;;;;;;;7.70;7.20;;;14.50;99.90;;;;;;5031087;28;20969;-66
2021/09/19 03:34:21;;;;;;;7.40;6.90;;;14.50;99.90;;;;;;5032506;28;20272;-66
2021/09/19 03:36:47;;;;;;;7.33;6.83;;;14.60;99.90;;;;;;5030980;28;20254;-67
2021/09/19 03:39:13;;;;;;;7.13;6.63;;;14.70;99.90;;;;;;5031349;28;20192;-66
2021/09/19 03:41:38;;;;;;;7.60;6.90;;;14.80;99.90;;;;;;5030889;28;20691;-67
2021/09/19 03:44:06;;;;;;;7.30;6.80;;;14.60;99.90;;;;;;5032067;28;20175;-67
2021/09/19 03:46:31;;;;;;;7.23;6.70;;;14.50;99.90;;;;;;5031565;28;20218;-72
2021/09/19 03:48:57;;;;;;;7.10;6.50;;;14.30;99.90;;;;;;5031338;28;20757;-66
2021/09/19 03:51:23;;;;;;;6.83;6.33;;;14.30;99.90;;;;;;5031715;28;20178;-67
2021/09/19 03:53:49;;;;;;;7.70;7.10;;;14.30;99.90;;;;;;5030632;28;20592;-66
2021/09/19 03:56:15;;;;;;;7.10;6.50;;;14.30;99.90;;;;;;5031621;28;20426;-66
2021/09/19 03:58:41;;;;;;;7.07;6.50;;;14.40;99.90;;;;;;5030754;28;20511;-66
2021/09/19 04:01:06;;;;;;;6.90;6.30;;;14.40;99.90;;;;;;5031508;28;20407;-66
2021/09/19 04:03:32;;;;;;;8.10;7.20;;;14.50;99.90;;;;;;5031807;28;20176;-70
2021/09/19 04:05:58;;;;;;;6.93;6.27;;;14.50;99.90;;;;;;5034561;28;20626;-66
2021/09/19 04:08:23;;;;;;;6.70;6.30;;;14.60;99.90;;;;;;5055007;28;20458;-66
2021/09/19 04:10:49;;;;;;;6.47;5.97;;;14.60;99.90;;;;;;5053953;28;20618;-67
2021/09/19 04:13:15;;;;;;;7.20;6.60;;;14.60;99.90;;;;;;5054606;28;20206;-66
2021/09/19 04:15:41;;;;;;;7.17;6.63;;;14.60;99.90;;;;;;5054379;28;20638;-66
2021/09/19 04:18:07;;;;;;;7.40;6.90;;;14.60;99.90;;;;;;5054802;28;20171;-66
2021/09/19 04:20:34;;;;;;;6.97;6.30;;;14.60;99.90;;;;;;5054642;28;20419;-69
2021/09/19 04:23:00;;;;;;;7.03;6.43;;;14.40;99.90;;;;;;5054222;28;20509;-66
2021/09/19 04:25:26;;;;;;;6.93;6.43;;;14.40;99.90;;;;;;5054717;28;20411;-66
2021/09/19 04:27:51;;;;;;;7.33;6.67;;;14.50;99.90;;;;;;5037581;28;20817;-67
2021/09/19 04:30:17;;;;;;;6.70;6.10;;;14.60;99.90;;;;;;5034628;28;20179;-66
2021/09/19 04:32:43;;;;;;;7.60;6.23;;;14.50;99.90;;;;;;5033886;28;20577;-66
2021/09/19 04:35:10;;;;;;;7.83;7.23;;;14.30;99.90;;;;;;5034713;28;20226;-66
2021/09/19 04:37:35;;;;;;;7.20;6.50;;;14.30;99.90;;;;;;5034324;28;20190;-73
2021/09/19 04:40:02;;;;;;;7.17;6.40;;;14.30;99.90;;;;;;5016499;28;20757;-66
2021/09/19 04:42:27;;;;;;;7.27;6.67;;;14.30;99.90;;;;;;5034182;28;20597;-67
2021/09/19 04:44:53;;;;;;;7.37;6.77;;;14.30;99.90;;;;;;5033348;28;20472;-66
2021/09/19 04:47:19;;;;;;;7.77;7.17;;;14.40;99.90;;;;;;5034859;28;20241;-66
2021/09/19 04:49:45;;;;;;;8.40;7.13;;;14.40;99.90;;;;;;5033472;28;20780;-67
2021/09/19 04:52:11;;;;;;;7.40;6.80;;;14.40;99.90;;;;;;5034678;28;20616;-66
2021/09/19 04:54:36;;;;;;;8.30;6.90;;;14.50;99.90;;;;;;5016311;28;20615;-73
2021/09/19 04:57:02;;;;;;;9.37;7.17;;;14.50;99.90;;;;;;5033466;28;20425;-66
2021/09/19 04:59:28;;;;;;;8.57;7.80;;;14.50;99.90;;;;;;5033899;28;20215;-66
2021/09/19 05:01:54;;;;;;;8.07;7.10;;;14.50;99.90;;;;;;5033484;28;20820;-66
2021/09/19 05:04:20;;;;;;;7.57;6.97;;;14.50;99.90;;;;;;5015981;28;20184;-66
2021/09/19 05:06:45;;;;;;;7.37;6.80;;;14.50;99.90;;;;;;5038582;28;20663;-66
2021/09/19 05:09:11;;;;;;;9.27;8.57;;;14.50;99.90;;;;;;5036170;28;20205;-66
2021/09/19 05:11:37;;;;;;;8.17;7.57;;;14.60;99.90;;;;;;5035993;28;20198;-73
2021/09/19 05:14:03;;;;;;;8.73;8.00;;;14.60;99.90;;;;;;5053833;28;20187;-66
2021/09/19 05:16:29;;;;;;;7.50;7.03;;;14.60;99.90;;;;;;5053636;28;20188;-66
2021/09/19 05:18:57;;;;;;;7.80;7.20;;;14.60;99.90;;;;;;5053588;28;20760;-66
2021/09/19 05:21:23;;;;;;;8.40;7.70;;;14.60;99.90;;;;;;5054145;28;20172;-66
2021/09/19 05:23:49;;;;;;;7.70;7.10;;;14.70;99.90;;;;;;5053577;28;20413;-67
2021/09/19 05:26:15;;;;;;;7.07;6.57;;;14.70;99.90;;;;;;5051827;28;20469;-66
2021/09/19 05:28:40;;;;;;;7.57;7.07;;;14.70;99.90;;;;;;5053380;28;20299;-67
2021/09/19 05:31:06;;;;;;;8.00;7.30;;;14.80;99.90;;;;;;5054074;28;20765;-66
2021/09/19 05:33:32;;;;;;;9.40;8.50;;;14.60;99.90;;;;;;5054054;28;20173;-66
2021/09/19 05:35:57;;;;;;;8.50;7.90;;;14.50;99.90;;;;;;5053204;28;20669;-66
2021/09/19 05:38:23;;;;;;;8.57;7.87;;;14.50;99.90;;;;;;5053240;28;20173;-67
2021/09/19 05:40:49;;;;;;;16.00;14.30;;;14.60;99.90;;;;;;5036543;28;20206;-67
2021/09/19 05:43:15;;;;;;;9.07;8.37;;;14.50;99.90;;;;;;5034427;28;20186;-66
2021/09/19 05:45:41;;;;;;;7.93;7.30;;;14.60;99.90;;;;;;5032495;28;21028;-73
2021/09/19 05:48:07;;;;;;;7.93;7.37;;;14.60;99.90;;;;;;5015472;28;20705;-67
2021/09/19 05:50:32;;;;;;;7.73;7.23;;;14.70;99.90;;;;;;5039782;28;20191;-67
2021/09/19 05:52:58;;;;;;;8.93;8.03;;;14.80;99.90;;;;;;5051847;28;20669;-67
2021/09/19 05:55:24;;;;;;;7.57;7.07;;;14.80;99.90;;;;;;5053066;28;20186;-66
2021/09/19 05:57:49;;;;;;;7.30;6.80;;;14.80;99.90;;;;;;5051814;28;20187;-66
2021/09/19 06:00:15;;;;;;;8.00;7.40;;;14.80;99.90;;;;;;5050233;28;20176;-66
2021/09/19 06:02:41;;;;;;;8.43;7.83;;;14.70;99.90;;;;;;5024122;28;20877;-73
2021/09/19 06:05:08;;;;;;;8.47;7.30;;;14.70;99.90;;;;;;5051799;28;20527;-66
2021/09/19 06:07:34;;;;;;;8.63;8.03;;;14.60;99.90;;;;;;5039591;28;20283;-67
2021/09/19 06:09:59;;;;;;;8.20;7.60;;;14.60;99.90;;;;;;5051581;28;20922;-69
2021/09/19 06:12:25;;;;;;;8.50;7.77;;;14.50;99.90;;;;;;5028084;28;20208;-67
2021/09/19 06:14:51;;;;;;;9.53;8.60;;;14.50;99.90;;;;;;5035085;28;20616;-66
2021/09/19 06:17:20;;;;;;;8.50;7.80;;;14.40;99.90;;;;;;5032305;28;20185;-67
2021/09/19 06:19:50;;;;;;;8.40;7.67;;;14.30;99.90;;;;;;5031745;28;20436;-70
2021/09/19 06:22:16;;;;;;;7.40;6.80;;;14.40;99.90;;;;;;5031763;28;20993;-66
2021/09/19 06:24:42;;;;;;;8.10;7.50;;;14.30;99.90;;;;;;5032059;28;20402;-73
2021/09/19 06:27:08;;;;;;;7.97;7.37;;;14.30;99.90;;;;;;5036010;28;20455;-67
2021/09/19 06:29:33;;;;;;;7.40;6.83;;;14.40;99.90;;;;;;5044739;28;20586;-67
2021/09/19 06:31:59;;;;;;;7.80;7.20;;;14.30;99.90;;;;;;5032959;28;20452;-67
2021/09/19 06:34:25;;;;;;;8.00;7.30;;;14.30;99.90;;;;;;5041093;28;20205;-67
2021/09/19 06:36:51;;;;;;;8.13;7.20;;;14.30;99.90;;;;;;5039659;28;20183;-67
2021/09/19 06:39:17;;;;;;;8.00;7.30;;;14.50;99.90;;;;;;5051317;28;20421;-66
2021/09/19 06:41:42;;;;;;;9.27;8.47;;;14.60;99.90;;;;;;5046180;28;20219;-74
2021/09/19 06:44:08;;;;;;;7.57;6.97;;;14.70;99.90;;;;;;5033477;28;20229;-67
2021/09/19 06:46:34;;;;;;;19.50;13.97;;;14.90;99.90;;;;;;5038174;28;20215;-67
2021/09/19 06:49:02;;;;;;;9.30;8.50;;;15.00;99.90;;;;;;5044273;28;20223;-66
2021/09/19 06:51:28;;;;;;;18.90;14.90;;;15.50;99.90;;;;;;5031989;28;20991;-66
2021/09/19 06:53:54;;;;;;;36.03;24.70;;;15.90;99.90;;;;;;5039668;28;20451;-67
2021/09/19 06:56:21;;;;;;;16.10;13.17;;;16.40;99.90;;;;;;5042794;28;20459;-67
2021/09/19 06:58:48;;;;;;;7.97;7.27;;;16.80;99.90;;;;;;5044169;28;20424;-73
2021/09/19 07:01:15;;;;;;;22.40;17.13;;;17.10;99.90;;;;;;5032217;28;20511;-67
2021/09/19 07:03:42;;;;;;;29.37;21.47;;;17.50;99.90;;;;;;5032150;28;20817;-67
2021/09/19 07:06:08;;;;;;;7.67;7.07;;;17.80;99.90;;;;;;5017326;28;20452;-67
2021/09/19 07:08:34;;;;;;;18.13;15.07;;;18.10;99.90;;;;;;5031706;28;20433;-67
2021/09/19 07:11:01;;;;;;;8.80;8.10;;;18.30;99.90;;;;;;5030955;28;20909;-67
2021/09/19 07:13:27;;;;;;;7.47;6.77;;;18.40;99.90;;;;;;5031737;28;20417;-67
2021/09/19 07:15:53;;;;;;;8.77;8.07;;;18.50;99.90;;;;;;5030762;28;20413;-67
2021/09/19 07:18:20;;;;;;;8.17;7.50;;;18.50;99.90;;;;;;5032836;28;20277;-68
2021/09/19 07:20:46;;;;;;;7.53;7.00;;;18.60;99.90;;;;;;5044936;28;20836;-76
2021/09/19 07:23:11;;;;;;;7.40;6.90;;;18.70;99.90;;;;;;5034939;28;20474;-68
2021/09/19 07:25:37;;;;;;;7.50;6.90;;;18.70;99.90;;;;;;5031859;28;20898;-68
2021/09/19 07:28:04;;;;;;;8.07;7.30;;;18.70;99.90;;;;;;5030941;28;20305;-69
2021/09/19 07:30:30;;;;;;;7.67;7.07;;;18.70;99.90;;;;;;5032153;28;20203;-68
2021/09/19 07:32:57;;;;;;;8.30;7.50;;;18.70;99.90;;;;;;5031070;28;20795;-66
2021/09/19 07:35:23;;;;;;;8.10;7.40;;;18.80;99.90;;;;;;5035679;28;20475;-68
2021/09/19 07:37:49;;;;;;;6.17;5.77;;;19.00;99.90;;;;;;5042356;28;20424;-74
2021/09/19 07:40:15;;;;;;;25.30;18.80;;;18.90;99.90;;;;;;5039533;28;20186;-67
2021/09/19 07:42:41;;;;;;;87.77;63.93;;;18.90;99.90;;;;;;5052928;28;20504;-67
2021/09/19 07:45:08;;;;;;;81.87;63.17;;;19.10;99.90;;;;;;5054933;28;20464;-67
2021/09/19 07:47:34;;;;;;;9.50;8.60;;;19.30;99.90;;;;;;5025799;28;20939;-67
2021/09/19 07:50:00;;;;;;;8.90;8.10;;;19.50;99.90;;;;;;5043316;28;20496;-68
2021/09/19 07:52:27;;;;;;;5.80;5.40;;;19.60;99.90;;;;;;5035581;28;20437;-67
2021/09/19 07:54:54;;;;;;;11.93;9.03;;;19.70;99.90;;;;;;5035734;28;20991;-68
2021/09/19 07:57:24;;;;;;;8.03;6.30;;;19.70;99.90;;;;;;5048704;28;20421;-68
2021/09/19 07:59:51;;;;;;;6.07;5.57;;;19.70;99.90;;;;;;5035144;28;20393;-68
2021/09/19 08:02:18;;;;;;;6.03;5.40;;;19.70;99.90;;;;;;5035563;28;20436;-68
2021/09/19 08:04:43;;;;;;;6.97;6.33;;;19.70;99.80;;;;;;5038086;28;20425;-68
2021/09/19 08:07:09;;;;;;;5.97;5.57;;;19.60;99.90;;;;;;5048243;28;20457;-69
2021/09/19 08:09:36;;;;;;;6.30;5.90;;;19.60;99.90;;;;;;5035060;28;20186;-68
2021/09/19 08:12:02;;;;;;;7.03;6.40;;;19.60;99.90;;;;;;5034138;28;20578;-68
2021/09/19 08:14:28;;;;;;;7.10;6.60;;;19.60;99.90;;;;;;5035797;28;20900;-68
2021/09/19 08:16:54;;;;;;;24.03;20.80;;;19.60;99.90;;;;;;5016828;28;20467;-67
2021/09/19 08:19:21;;;;;;;64.87;57.30;;;19.60;99.90;;;;;;5034887;28;20182;-67
2021/09/19 08:21:48;;;;;;;24.10;20.10;;;19.60;99.90;;;;;;5034763;28;20185;-67
2021/09/19 08:24:14;;;;;;;8.60;7.90;;;19.70;99.90;;;;;;5034073;28;20405;-67
2021/09/19 08:26:40;;;;;;;7.70;7.10;;;19.70;99.90;;;;;;5035041;28;20445;-68
2021/09/19 08:29:07;;;;;;;6.10;5.60;;;19.60;99.90;;;;;;5038376;28;20431;-68
2021/09/19 08:31:33;;;;;;;7.63;6.90;;;19.60;99.40;;;;;;5054022;28;20416;-68
2021/09/19 08:33:59;;;;;;;7.20;6.50;;;19.50;99.50;;;;;;5038513;28;20417;-66
2021/09/19 08:36:25;;;;;;;6.57;6.17;;;19.50;99.90;;;;;;5034763;28;20409;-65
2021/09/19 08:38:51;;;;;;;6.47;5.93;;;19.40;99.80;;;;;;5034298;28;20174;-72
2021/09/19 08:41:18;;;;;;;6.47;6.00;;;19.20;99.80;;;;;;5034383;28;20421;-66
2021/09/19 08:43:45;;;;;;;6.87;6.37;;;19.10;99.80;;;;;;5034681;28;20738;-66
2021/09/19 08:46:13;;;;;;;7.70;7.00;;;19.00;99.90;;;;;;5033135;28;20468;-65
2021/09/19 08:48:39;;;;;;;7.57;6.90;;;19.10;99.90;;;;;;5034452;28;20485;-66
2021/09/19 08:51:05;;;;;;;16.17;14.70;;;19.10;99.90;;;;;;5032976;28;20508;-65
2021/09/19 08:53:31;;;;;;;14.47;13.17;;;19.20;99.90;;;;;;5034601;28;20202;-66
2021/09/19 08:56:00;;;;;;;7.77;7.20;;;19.10;99.90;;;;;;5034684;28;20429;-66
2021/09/19 08:58:26;;;;;;;8.47;7.67;;;19.00;99.90;;;;;;5038742;28;20424;-67
2021/09/19 09:00:52;;;;;;;8.00;7.40;;;19.00;99.90;;;;;;5038591;28;20447;-64
2021/09/19 09:03:25;;;;;;;8.00;7.30;;;19.00;99.90;;;;;;5043940;28;20421;-66
2021/09/19 09:06:00;;;;;;;7.30;6.80;;;19.10;99.90;;;;;;5046414;28;20201;-73
2021/09/19 09:08:26;;;;;;;6.80;6.30;;;19.10;99.90;;;;;;5037248;28;20435;-66
2021/09/19 09:10:55;;;;;;;7.87;7.17;;;19.10;99.90;;;;;;5053717;28;20400;-73
2021/09/19 09:13:24;;;;;;;7.77;7.27;;;19.10;99.90;;;;;;5042743;28;20507;-66
2021/09/19 09:15:51;;;;;;;7.53;7.03;;;19.10;99.90;;;;;;5050130;28;20519;-65
2021/09/19 09:18:34;;;;;;;7.70;7.20;;;19.10;99.90;;;;;;5053866;28;20428;-65
2021/09/19 09:21:13;;;;;;;7.83;7.33;;;19.20;99.90;;;;;;5053412;28;20937;-65
2021/09/19 09:23:41;;;;;;;7.53;6.93;;;19.20;99.90;;;;;;5051976;28;20428;-65
2021/09/19 09:26:12;;;;;;;7.77;7.13;;;19.20;99.90;;;;;;5053420;28;20448;-65
2021/09/19 09:28:41;;;;;;;8.00;7.40;;;19.20;99.90;;;;;;5053954;28;20393;-65
2021/09/19 09:31:07;;;;;;;7.20;6.70;;;19.30;99.90;;;;;;5053317;28;20408;-65
2021/09/19 09:33:33;;;;;;;8.73;8.00;;;19.30;99.90;;;;;;5053926;28;20965;-65
2021/09/19 09:36:07;;;;;;;7.63;7.00;;;19.30;99.90;;;;;;5053234;28;20412;-65
2021/09/19 09:38:32;;;;;;;7.60;7.10;;;19.40;99.90;;;;;;5052974;28;20630;-66
2021/09/19 09:40:58;;;;;;;6.70;6.30;;;19.40;99.90;;;;;;5033494;28;20420;-66
2021/09/19 09:43:24;;;;;;;6.77;6.27;;;19.40;99.90;;;;;;5039159;28;20417;-65
2021/09/19 09:45:51;;;;;;;6.70;6.10;;;19.40;99.90;;;;;;5041917;28;20597;-65
2021/09/19 09:48:32;;;;;;;6.47;5.93;;;19.50;99.90;;;;;;5037754;28;20194;-67
2021/09/19 09:51:01;;;;;;;7.70;7.10;;;19.50;99.90;;;;;;5018586;28;20429;-64
2021/09/19 09:53:28;;;;;;;8.30;7.50;;;19.60;99.90;;;;;;5029661;28;20416;-64
2021/09/19 09:55:56;;;;;;;7.40;6.80;;;19.60;99.90;;;;;;5042912;28;20841;-71
2021/09/19 09:58:22;;;;;;;7.00;6.50;;;19.60;99.90;;;;;;5024688;28;20410;-65
2021/09/19 10:00:56;;;;;;;7.83;7.23;;;19.70;99.90;;;;;;5042886;28;20429;-65
2021/09/19 10:03:24;;;;;;;8.00;7.40;;;19.70;99.90;;;;;;5047967;28;20408;-65
2021/09/19 10:05:50;;;;;;;8.23;7.63;;;19.70;99.90;;;;;;5038249;28;20417;-65
2021/09/19 10:08:15;;;;;;;8.37;7.67;;;19.70;98.80;;;;;;5031254;28;20975;-65
2021/09/19 10:10:43;;;;;;;8.43;7.83;;;19.70;99.60;;;;;;5014474;28;20421;-65
2021/09/19 10:13:11;;;;;;;9.63;8.73;;;19.70;98.90;;;;;;5031786;28;20182;-65
2021/09/19 10:15:38;;;;;;;8.83;8.10;;;19.70;99.00;;;;;;5014283;28;20474;-65
2021/09/19 10:18:05;;;;;;;9.67;8.77;;;19.70;99.10;;;;;;5039751;28;21975;-65
2021/09/19 10:20:41;;;;;;;12.43;11.33;;;19.60;98.60;;;;;;5037087;28;20424;-65
2021/09/19 10:23:20;;;;;;;10.23;9.43;;;19.50;97.90;;;;;;5040110;28;20501;-65
2021/09/19 10:26:07;;;;;;;7.80;7.30;;;19.40;98.30;;;;;;5015163;28;20500;-65
2021/09/19 10:28:33;;;;;;;6.87;6.37;;;19.40;97.60;;;;;;5052143;28;20464;-65
2021/09/19 10:31:08;;;;;;;8.07;7.37;;;19.30;97.30;;;;;;5051656;28;20413;-66
2021/09/19 10:33:52;;;;;;;6.77;6.27;;;19.30;97.40;;;;;;5033734;28;20475;-66
2021/09/19 10:36:35;;;;;;;6.87;6.37;;;19.20;97.30;;;;;;5049411;28;20454;-65
2021/09/19 10:39:33;;;;;;;6.30;5.80;;;19.20;97.30;;;;;;5051826;28;20873;-65
2021/09/19 10:42:28;;;;;;;6.73;6.23;;;19.20;97.70;;;;;;5030391;28;20435;-71
2021/09/19 10:45:07;;;;;;;6.93;6.33;;;19.20;98.70;;;;;;5033033;28;20783;-65
2021/09/19 10:47:40;;;;;;;7.10;6.60;;;19.20;99.60;;;;;;5063304;28;20443;-66
2021/09/19 10:50:36;;;;;;;21.97;19.00;;;19.20;99.90;;;;;;5071779;28;20411;-64
2021/09/19 10:53:22;;;;;;;137.40;111.63;;;19.20;99.90;;;;;;5050502;28;20432;-66
2021/09/19 10:55:49;;;;;;;36.40;29.80;;;19.30;99.90;;;;;;5060221;28;20465;-66
2021/09/19 10:58:26;;;;;;;11.67;10.57;;;19.20;99.90;;;;;;5063012;28;20421;-65
2021/09/19 11:01:27;;;;;;;6.43;6.03;;;19.20;99.00;;;;;;5051602;28;20403;-65
2021/09/19 11:03:58;;;;;;;5.77;5.37;;;19.20;98.10;;;;;;5049350;28;20430;-68
2021/09/19 11:06:34;;;;;;;6.40;6.00;;;19.10;97.00;;;;;;5057263;28;20478;-68
2021/09/19 11:09:23;;;;;;;5.90;5.47;;;19.10;97.60;;;;;;5063823;28;20436;-74
2021/09/19 11:12:12;;;;;;;6.40;5.80;;;19.00;96.80;;;;;;5051059;28;20424;-68
2021/09/19 11:15:00;;;;;;;6.37;5.97;;;19.00;97.60;;;;;;5054247;28;20779;-68
2021/09/19 11:17:31;;;;;;;6.70;6.20;;;19.00;97.40;;;;;;5070700;28;20508;-68
2021/09/19 11:20:16;;;;;;;5.70;5.40;;;19.00;97.70;;;;;;5073765;28;20777;-76
2021/09/19 11:23:07;;;;;;;6.00;5.47;;;19.00;97.70;;;;;;5073673;28;20451;-69
2021/09/19 11:25:33;;;;;;;5.63;5.07;;;19.00;97.70;;;;;;5055849;28;20416;-69
2021/09/19 11:27:59;;;;;;;5.03;4.73;;;18.80;97.70;;;;;;5055551;28;20538;-69
2021/09/19 11:30:28;;;;;;;5.20;4.90;;;18.90;98.00;;;;;;5056231;28;20181;-68
2021/09/19 11:32:54;;;;;;;5.60;5.20;;;18.90;97.90;;;;;;5055085;28;20408;-68
2021/09/19 11:35:20;;;;;;;4.70;4.40;;;18.90;97.50;;;;;;5055581;28;20465;-68
2021/09/19 11:37:54;;;;;;;5.13;4.73;;;18.80;97.80;;;;;;5057443;28;20184;-68
2021/09/19 11:40:24;;;;;;;5.07;4.77;;;18.80;97.70;;;;;;5072462;28;20229;-68
2021/09/19 11:42:51;;;;;;;5.30;5.00;;;18.80;97.90;;;;;;5060592;28;20432;-68
2021/09/19 11:45:18;;;;;;;5.50;5.20;;;18.80;97.80;;;;;;5052304;28;20463;-68
2021/09/19 11:47:46;;;;;;;5.10;4.70;;;18.90;98.00;;;;;;5044338;28;20463;-68
2021/09/19 11:50:11;;;;;;;5.07;4.73;;;18.90;98.00;;;;;;5045116;28;20413;-68
2021/09/19 11:52:37;;;;;;;5.43;5.10;;;18.90;97.80;;;;;;5021595;28;20436;-68
2021/09/19 11:55:03;;;;;;;5.50;5.00;;;18.90;98.00;;;;;;5049313;28;20192;-75
2021/09/19 11:57:29;;;;;;;6.03;5.63;;;18.90;97.60;;;;;;5054142;28;20177;-68
2021/09/19 12:00:03;;;;;;;5.90;5.40;;;19.00;97.90;;;;;;5037155;28;20412;-69
2021/09/19 12:02:30;;;;;;;5.30;5.00;;;19.00;98.10;;;;;;5038666;28;20166;-68
2021/09/19 12:05:00;;;;;;;4.23;4.03;;;18.90;98.50;;;;;;5027449;28;20460;-68
2021/09/19 12:07:25;;;;;;;6.20;5.27;;;18.90;98.50;;;;;;5018021;28;20803;-69
2021/09/19 12:09:52;;;;;;;5.53;5.13;;;18.80;97.80;;;;;;5035568;28;20503;-69
2021/09/19 12:12:20;;;;;;;5.40;5.10;;;18.80;97.70;;;;;;5034979;28;20179;-68
2021/09/19 12:14:48;;;;;;;5.60;5.20;;;18.80;97.80;;;;;;5035195;28;20432;-68
2021/09/19 12:17:15;;;;;;;5.93;5.13;;;18.80;98.40;;;;;;5017217;28;20508;-69
2021/09/19 12:19:45;;;;;;;5.73;5.33;;;18.80;98.50;;;;;;5035599;28;20768;-68
2021/09/19 12:22:24;;;;;;;5.30;5.00;;;18.80;98.30;;;;;;5035078;28;20452;-68
2021/09/19 12:24:56;;;;;;;5.60;5.20;;;18.80;98.30;;;;;;5017841;28;20492;-68
2021/09/19 12:27:25;;;;;;;6.33;5.93;;;18.80;98.90;;;;;;5033589;28;20476;-68
2021/09/19 12:30:16;;;;;;;5.47;5.10;;;18.80;98.50;;;;;;5035286;28;20444;-68
2021/09/19 12:32:54;;;;;;;5.00;4.70;;;18.80;98.70;;;;;;5034754;28;20413;-68
2021/09/19 12:35:25;;;;;;;5.97;5.57;;;18.80;98.10;;;;;;5033507;28;20862;-69
2021/09/19 12:37:51;;;;;;;5.80;5.40;;;18.70;97.70;;;;;;5035009;28;20492;-68
2021/09/19 12:40:22;;;;;;;6.43;6.03;;;18.70;97.60;;;;;;5034372;28;20936;-68
2021/09/19 12:42:50;;;;;;;6.00;5.50;;;18.70;97.30;;;;;;5034680;28;20413;-68
2021/09/19 12:45:21;;;;;;;5.90;5.50;;;18.60;97.20;;;;;;5028438;28;20464;-68
2021/09/19 12:47:55;;;;;;;5.87;5.53;;;18.60;97.40;;;;;;5055088;28;20444;-68
2021/09/19 12:50:22;;;;;;;6.93;5.73;;;18.60;96.80;;;;;;5062394;28;20461;-68